sensor_id;sensor_type;location;lat;lon;timestamp;temperature;humidity
13744;DHT22;6943;52.368;9.966;2023-02-22T00:02:14;10.00;1.00
13744;DHT22;6943;52.368;9.966;2023-02-22T00:04:52;10.00;1.00
13744;DHT22;6943;52.368;9.966;2023-02-22T00:07:18;9.90;1.00
13744;DHT22;6943;52.368;9.966;2023-02-22T00:09:45;10.00;1.00
13744;DHT22;6943;52.368;9.966;2023-02-22T00:12:11;10.00;1.00
13744;DHT22;6943;52.368;9.966;2023-02-22T00:14:37;10.00;99.90
13744;DHT22;6943;52.368;9.966;2023-02-22T00:17:02;10.00;99.90
13744;DHT22;6943;52.368;9.966;2023-02-22T00:19:28;10.00;39.30
13744;DHT22;6943;52.368;9.966;2023-02-22T00:21:55;9.90;1.00
13744;DHT22;6943;52.368;9.966;2023-02-22T00:24:22;9.90;1.00
13744;DHT22;6943;52.368;9.966;2023-02-22T00:26:52;10.00;1.00
13744;DHT22;6943;52.368;9.966;2023-02-22T00:29:20;10.10;1.00
13744;DHT22;6943;52.368;9.966;2023-02-22T00:31:45;9.90;1.00
13744;DHT22;6943;52.368;9.966;2023-02-22T00:34:13;9.80;99.90
13744;DHT22;6943;52.368;9.966;2023-02-22T00:36:43;9.70;1.00
13744;DHT22;6943;52.368;9.966;2023-02-22T00:39:08;9.60;1.00
13744;DHT22;6943;52.368;9.966;2023-02-22T00:41:34;9.60;99.90
13744;DHT22;6943;52.368;9.966;2023-02-22T00:43:59;9.50;1.00
13744;DHT22;6943;52.368;9.966;2023-02-22T00:46:25;9.50;1.00
13744;DHT22;6943;52.368;9.966;2023-02-22T00:48:50;9.40;1.00
13744;DHT22;6943;52.368;9.966;2023-02-22T00:51:15;9.30;1.00
13744;DHT22;6943;52.368;9.966;2023-02-22T00:53:41;9.20;21.00
13744;DHT22;6943;52.368;9.966;2023-02-22T00:56:06;9.10;99.90
13744;DHT22;6943;52.368;9.966;2023-02-22T00:58:32;9.00;1.00
13744;DHT22;6943;52.368;9.966;2023-02-22T01:00:57;9.00;1.00
13744;DHT22;6943;52.368;9.966;2023-02-22T01:03:23;8.90;99.90
13744;DHT22;6943;52.368;9.966;2023-02-22T01:05:48;8.90;99.90
13744;DHT22;6943;52.368;9.966;2023-02-22T01:08:15;8.60;99.90
13744;DHT22;6943;52.368;9.966;2023-02-22T01:10:41;8.40;1.00
13744;DHT22;6943;52.368;9.966;2023-02-22T01:13:07;8.40;1.00
13744;DHT22;6943;52.368;9.966;2023-02-22T01:15:38;8.20;1.00
13744;DHT22;6943;52.368;9.966;2023-02-22T01:18:04;8.10;96.60
13744;DHT22;6943;52.368;9.966;2023-02-22T01:20:30;8.10;99.90
13744;DHT22;6943;52.368;9.966;2023-02-22T01:22:57;8.00;99.90
13744;DHT22;6943;52.368;9.966;2023-02-22T01:25:26;8.00;99.90
13744;DHT22;6943;52.368;9.966;2023-02-22T01:27:53;8.00;99.90
13744;DHT22;6943;52.368;9.966;2023-02-22T01:30:21;7.90;99.90
13744;DHT22;6943;52.368;9.966;2023-02-22T01:32:47;7.80;99.90
13744;DHT22;6943;52.368;9.966;2023-02-22T01:35:17;7.60;99.90
13744;DHT22;6943;52.368;9.966;2023-02-22T01:37:43;7.50;99.90
13744;DHT22;6943;52.368;9.966;2023-02-22T01:40:14;7.40;99.90
13744;DHT22;6943;52.368;9.966;2023-02-22T01:42:40;7.40;99.90
13744;DHT22;6943;52.368;9.966;2023-02-22T01:45:39;7.40;99.90
13744;DHT22;6943;52.368;9.966;2023-02-22T01:50:44;7.40;99.90
13744;DHT22;6943;52.368;9.966;2023-02-22T01:53:14;7.40;99.90
13744;DHT22;6943;52.368;9.966;2023-02-22T01:55:41;7.30;99.90
13744;DHT22;6943;52.368;9.966;2023-02-22T01:58:07;7.30;99.90
13744;DHT22;6943;52.368;9.966;2023-02-22T02:00:33;7.30;99.90
13744;DHT22;6943;52.368;9.966;2023-02-22T02:03:05;7.30;99.90
13744;DHT22;6943;52.368;9.966;2023-02-22T02:05:33;7.30;99.90
13744;DHT22;6943;52.368;9.966;2023-02-22T02:08:07;7.30;99.90
13744;DHT22;6943;52.368;9.966;2023-02-22T02:10:38;7.30;99.90
13744;DHT22;6943;52.368;9.966;2023-02-22T02:13:03;7.30;99.90
13744;DHT22;6943;52.368;9.966;2023-02-22T02:15:31;7.40;99.90
13744;DHT22;6943;52.368;9.966;2023-02-22T02:18:00;7.30;99.90
13744;DHT22;6943;52.368;9.966;2023-02-22T02:20:38;7.30;99.90
13744;DHT22;6943;52.368;9.966;2023-02-22T02:23:37;7.20;99.90
13744;DHT22;6943;52.368;9.966;2023-02-22T02:26:14;7.10;99.90
13744;DHT22;6943;52.368;9.966;2023-02-22T02:29:00;6.90;99.90
13744;DHT22;6943;52.368;9.966;2023-02-22T02:34:36;6.70;99.90
13744;DHT22;6943;52.368;9.966;2023-02-22T02:40:19;6.60;99.90
13744;DHT22;6943;52.368;9.966;2023-02-22T02:43:00;6.60;99.90
13744;DHT22;6943;52.368;9.966;2023-02-22T02:45:38;6.60;99.90
13744;DHT22;6943;52.368;9.966;2023-02-22T02:48:08;6.70;99.90
13744;DHT22;6943;52.368;9.966;2023-02-22T02:50:43;6.80;99.90
13744;DHT22;6943;52.368;9.966;2023-02-22T02:53:12;6.70;99.90
13744;DHT22;6943;52.368;9.966;2023-02-22T02:55:39;6.70;99.90
13744;DHT22;6943;52.368;9.966;2023-02-22T02:58:06;6.60;99.90
13744;DHT22;6943;52.368;9.966;2023-02-22T03:00:36;6.50;99.90
13744;DHT22;6943;52.368;9.966;2023-02-22T03:06:39;6.40;99.90
13744;DHT22;6943;52.368;9.966;2023-02-22T03:09:26;6.30;99.90
13744;DHT22;6943;52.368;9.966;2023-02-22T03:12:25;6.30;99.90
13744;DHT22;6943;52.368;9.966;2023-02-22T03:15:04;6.30;99.90
13744;DHT22;6943;52.368;9.966;2023-02-22T03:18:03;6.40;99.90
13744;DHT22;6943;52.368;9.966;2023-02-22T03:20:47;6.40;99.90
13744;DHT22;6943;52.368;9.966;2023-02-22T03:23:24;6.40;99.90
13744;DHT22;6943;52.368;9.966;2023-02-22T03:26:03;6.20;99.90
13744;DHT22;6943;52.368;9.966;2023-02-22T03:28:31;6.10;99.90
13744;DHT22;6943;52.368;9.966;2023-02-22T03:31:00;6.00;99.90
13744;DHT22;6943;52.368;9.966;2023-02-22T03:33:49;5.90;99.90
13744;DHT22;6943;52.368;9.966;2023-02-22T03:36:20;5.80;99.90
13744;DHT22;6943;52.368;9.966;2023-02-22T03:38:48;5.80;99.90
13744;DHT22;6943;52.368;9.966;2023-02-22T03:41:17;5.70;99.90
13744;DHT22;6943;52.368;9.966;2023-02-22T03:43:46;5.60;99.90
13744;DHT22;6943;52.368;9.966;2023-02-22T03:46:13;5.50;99.90
13744;DHT22;6943;52.368;9.966;2023-02-22T03:48:50;5.50;99.90
13744;DHT22;6943;52.368;9.966;2023-02-22T03:51:19;5.40;99.90
13744;DHT22;6943;52.368;9.966;2023-02-22T03:53:45;5.40;99.90
13744;DHT22;6943;52.368;9.966;2023-02-22T03:56:17;5.30;99.90
13744;DHT22;6943;52.368;9.966;2023-02-22T03:58:45;5.30;99.90
13744;DHT22;6943;52.368;9.966;2023-02-22T04:01:14;5.30;99.90
13744;DHT22;6943;52.368;9.966;2023-02-22T04:03:40;5.20;99.90
13744;DHT22;6943;52.368;9.966;2023-02-22T04:06:07;5.20;99.90
13744;DHT22;6943;52.368;9.966;2023-02-22T04:08:32;5.20;99.90
13744;DHT22;6943;52.368;9.966;2023-02-22T04:10:58;5.10;99.90
13744;DHT22;6943;52.368;9.966;2023-02-22T04:13:23;5.10;99.90
13744;DHT22;6943;52.368;9.966;2023-02-22T04:15:49;5.10;99.90
13744;DHT22;6943;52.368;9.966;2023-02-22T04:18:14;5.10;99.90
13744;DHT22;6943;52.368;9.966;2023-02-22T04:20:40;5.10;99.90
13744;DHT22;6943;52.368;9.966;2023-02-22T04:23:05;5.10;99.90
13744;DHT22;6943;52.368;9.966;2023-02-22T04:25:31;5.10;99.90
13744;DHT22;6943;52.368;9.966;2023-02-22T04:27:57;5.10;99.90
13744;DHT22;6943;52.368;9.966;2023-02-22T04:30:22;5.10;99.90
13744;DHT22;6943;52.368;9.966;2023-02-22T04:32:48;5.10;99.90
13744;DHT22;6943;52.368;9.966;2023-02-22T04:35:13;5.10;99.90
13744;DHT22;6943;52.368;9.966;2023-02-22T04:37:39;5.10;99.90
13744;DHT22;6943;52.368;9.966;2023-02-22T04:40:05;5.10;99.90
13744;DHT22;6943;52.368;9.966;2023-02-22T04:42:33;5.10;99.90
13744;DHT22;6943;52.368;9.966;2023-02-22T04:44:58;5.10;99.90
13744;DHT22;6943;52.368;9.966;2023-02-22T04:47:24;5.10;99.90
13744;DHT22;6943;52.368;9.966;2023-02-22T04:49:50;5.00;99.90
13744;DHT22;6943;52.368;9.966;2023-02-22T04:52:15;5.10;99.90
13744;DHT22;6943;52.368;9.966;2023-02-22T04:54:41;5.10;99.90
13744;DHT22;6943;52.368;9.966;2023-02-22T04:57:06;5.10;99.90
13744;DHT22;6943;52.368;9.966;2023-02-22T04:59:32;5.10;99.90
13744;DHT22;6943;52.368;9.966;2023-02-22T05:01:57;5.10;99.90
13744;DHT22;6943;52.368;9.966;2023-02-22T05:04:25;5.10;99.90
13744;DHT22;6943;52.368;9.966;2023-02-22T05:06:50;5.20;99.90
13744;DHT22;6943;52.368;9.966;2023-02-22T05:09:16;5.20;99.90
13744;DHT22;6943;52.368;9.966;2023-02-22T05:11:41;5.20;99.90
13744;DHT22;6943;52.368;9.966;2023-02-22T05:14:07;5.30;99.90
13744;DHT22;6943;52.368;9.966;2023-02-22T05:16:32;5.40;99.90
13744;DHT22;6943;52.368;9.966;2023-02-22T05:18:58;5.40;99.90
13744;DHT22;6943;52.368;9.966;2023-02-22T05:21:23;5.60;99.90
13744;DHT22;6943;52.368;9.966;2023-02-22T05:23:49;5.90;99.90
13744;DHT22;6943;52.368;9.966;2023-02-22T05:26:14;5.90;99.90
13744;DHT22;6943;52.368;9.966;2023-02-22T05:28:40;6.00;99.90
13744;DHT22;6943;52.368;9.966;2023-02-22T05:31:05;6.10;99.90
13744;DHT22;6943;52.368;9.966;2023-02-22T05:33:33;6.10;99.90
13744;DHT22;6943;52.368;9.966;2023-02-22T05:35:59;6.00;99.90
13744;DHT22;6943;52.368;9.966;2023-02-22T05:38:24;6.00;99.90
13744;DHT22;6943;52.368;9.966;2023-02-22T05:40:50;6.00;99.90
13744;DHT22;6943;52.368;9.966;2023-02-22T05:43:16;6.00;99.90
13744;DHT22;6943;52.368;9.966;2023-02-22T05:45:41;6.00;99.90
13744;DHT22;6943;52.368;9.966;2023-02-22T05:48:07;5.90;99.90
13744;DHT22;6943;52.368;9.966;2023-02-22T05:50:33;5.90;99.90
13744;DHT22;6943;52.368;9.966;2023-02-22T05:52:59;5.80;99.90
13744;DHT22;6943;52.368;9.966;2023-02-22T05:55:24;5.80;99.90
13744;DHT22;6943;52.368;9.966;2023-02-22T05:57:51;5.80;99.90
13744;DHT22;6943;52.368;9.966;2023-02-22T06:00:20;5.60;99.90
13744;DHT22;6943;52.368;9.966;2023-02-22T06:03:13;5.70;99.90
13744;DHT22;6943;52.368;9.966;2023-02-22T06:05:38;5.70;99.90
13744;DHT22;6943;52.368;9.966;2023-02-22T06:08:05;5.70;99.90
13744;DHT22;6943;52.368;9.966;2023-02-22T06:10:31;5.80;99.90
13744;DHT22;6943;52.368;9.966;2023-02-22T06:12:57;5.80;99.90
13744;DHT22;6943;52.368;9.966;2023-02-22T06:15:23;5.90;99.90
13744;DHT22;6943;52.368;9.966;2023-02-22T06:17:49;5.90;99.90
13744;DHT22;6943;52.368;9.966;2023-02-22T06:20:18;6.00;99.90
13744;DHT22;6943;52.368;9.966;2023-02-22T06:22:46;6.00;99.90
13744;DHT22;6943;52.368;9.966;2023-02-22T06:25:14;6.00;99.90
13744;DHT22;6943;52.368;9.966;2023-02-22T06:27:40;6.10;99.90
13744;DHT22;6943;52.368;9.966;2023-02-22T06:30:06;6.10;99.90
13744;DHT22;6943;52.368;9.966;2023-02-22T06:32:32;6.10;99.90
13744;DHT22;6943;52.368;9.966;2023-02-22T06:34:57;6.10;99.90
13744;DHT22;6943;52.368;9.966;2023-02-22T06:37:23;6.10;99.90
13744;DHT22;6943;52.368;9.966;2023-02-22T06:39:48;6.10;99.90
13744;DHT22;6943;52.368;9.966;2023-02-22T06:42:14;6.10;99.90
13744;DHT22;6943;52.368;9.966;2023-02-22T06:44:40;6.20;99.90
13744;DHT22;6943;52.368;9.966;2023-02-22T06:47:05;6.20;99.90
13744;DHT22;6943;52.368;9.966;2023-02-22T06:49:31;6.30;99.90
13744;DHT22;6943;52.368;9.966;2023-02-22T06:51:56;6.30;99.90
13744;DHT22;6943;52.368;9.966;2023-02-22T06:54:22;6.30;99.90
13744;DHT22;6943;52.368;9.966;2023-02-22T06:56:48;6.40;99.90
13744;DHT22;6943;52.368;9.966;2023-02-22T06:59:14;6.50;99.90
13744;DHT22;6943;52.368;9.966;2023-02-22T07:01:42;6.60;99.90
13744;DHT22;6943;52.368;9.966;2023-02-22T07:04:08;6.70;99.90
13744;DHT22;6943;52.368;9.966;2023-02-22T07:06:34;6.80;99.90
13744;DHT22;6943;52.368;9.966;2023-02-22T07:09:00;6.80;99.90
13744;DHT22;6943;52.368;9.966;2023-02-22T07:11:26;6.70;99.90
13744;DHT22;6943;52.368;9.966;2023-02-22T07:13:51;6.70;99.90
13744;DHT22;6943;52.368;9.966;2023-02-22T07:16:17;6.80;99.90
13744;DHT22;6943;52.368;9.966;2023-02-22T07:18:42;6.90;99.90
13744;DHT22;6943;52.368;9.966;2023-02-22T07:21:08;6.90;99.90
13744;DHT22;6943;52.368;9.966;2023-02-22T07:23:34;6.90;99.90
13744;DHT22;6943;52.368;9.966;2023-02-22T07:26:00;6.90;99.90
13744;DHT22;6943;52.368;9.966;2023-02-22T07:28:26;7.00;99.90
13744;DHT22;6943;52.368;9.966;2023-02-22T07:30:52;7.10;99.90
13744;DHT22;6943;52.368;9.966;2023-02-22T07:33:17;7.10;99.90
13744;DHT22;6943;52.368;9.966;2023-02-22T07:35:45;7.20;99.90
13744;DHT22;6943;52.368;9.966;2023-02-22T07:38:13;7.40;99.90
13744;DHT22;6943;52.368;9.966;2023-02-22T07:40:39;7.50;99.90
13744;DHT22;6943;52.368;9.966;2023-02-22T07:43:15;7.60;99.90
13744;DHT22;6943;52.368;9.966;2023-02-22T07:45:41;7.90;24.20
13744;DHT22;6943;52.368;9.966;2023-02-22T07:48:07;8.00;1.00
13744;DHT22;6943;52.368;9.966;2023-02-22T07:50:34;8.10;1.00
13744;DHT22;6943;52.368;9.966;2023-02-22T07:53:02;8.20;1.00
13744;DHT22;6943;52.368;9.966;2023-02-22T07:55:29;8.30;99.90
13744;DHT22;6943;52.368;9.966;2023-02-22T07:57:57;8.30;1.00
13744;DHT22;6943;52.368;9.966;2023-02-22T08:00:31;8.40;1.00
13744;DHT22;6943;52.368;9.966;2023-02-22T08:02:58;8.50;1.00
13744;DHT22;6943;52.368;9.966;2023-02-22T08:05:26;8.60;1.00
13744;DHT22;6943;52.368;9.966;2023-02-22T08:07:52;8.60;99.90
13744;DHT22;6943;52.368;9.966;2023-02-22T08:10:19;8.60;1.00
13744;DHT22;6943;52.368;9.966;2023-02-22T08:12:44;8.60;1.00
13744;DHT22;6943;52.368;9.966;2023-02-22T08:15:17;8.70;1.00
13744;DHT22;6943;52.368;9.966;2023-02-22T08:17:43;8.70;1.00
13744;DHT22;6943;52.368;9.966;2023-02-22T08:20:09;8.80;1.00
13744;DHT22;6943;52.368;9.966;2023-02-22T08:22:34;9.00;99.90
13744;DHT22;6943;52.368;9.966;2023-02-22T08:25:00;9.20;1.00
13744;DHT22;6943;52.368;9.966;2023-02-22T08:27:27;9.40;1.00
13744;DHT22;6943;52.368;9.966;2023-02-22T08:29:53;9.60;99.90
13744;DHT22;6943;52.368;9.966;2023-02-22T08:32:19;9.70;1.00
13744;DHT22;6943;52.368;9.966;2023-02-22T08:34:45;9.80;63.50
13744;DHT22;6943;52.368;9.966;2023-02-22T08:37:11;9.90;99.90
13744;DHT22;6943;52.368;9.966;2023-02-22T08:39:37;9.90;99.90
13744;DHT22;6943;52.368;9.966;2023-02-22T08:42:02;10.00;1.00
13744;DHT22;6943;52.368;9.966;2023-02-22T08:44:28;10.20;1.00
13744;DHT22;6943;52.368;9.966;2023-02-22T08:46:53;10.30;1.00
13744;DHT22;6943;52.368;9.966;2023-02-22T08:49:19;10.40;99.90
13744;DHT22;6943;52.368;9.966;2023-02-22T08:51:45;10.30;1.00
13744;DHT22;6943;52.368;9.966;2023-02-22T08:54:11;10.60;1.00
13744;DHT22;6943;52.368;9.966;2023-02-22T08:56:37;10.70;1.00
13744;DHT22;6943;52.368;9.966;2023-02-22T08:59:02;10.60;1.00
13744;DHT22;6943;52.368;9.966;2023-02-22T09:01:28;10.50;99.90
13744;DHT22;6943;52.368;9.966;2023-02-22T09:03:54;10.40;99.90
13744;DHT22;6943;52.368;9.966;2023-02-22T09:06:21;10.40;1.00
13744;DHT22;6943;52.368;9.966;2023-02-22T09:08:46;10.40;99.90
13744;DHT22;6943;52.368;9.966;2023-02-22T09:11:12;10.60;1.00
13744;DHT22;6943;52.368;9.966;2023-02-22T09:13:37;10.70;1.00
13744;DHT22;6943;52.368;9.966;2023-02-22T09:16:03;11.10;1.00
13744;DHT22;6943;52.368;9.966;2023-02-22T09:18:29;11.40;99.90
13744;DHT22;6943;52.368;9.966;2023-02-22T09:20:54;11.40;19.20
13744;DHT22;6943;52.368;9.966;2023-02-22T09:23:20;11.30;99.90
13744;DHT22;6943;52.368;9.966;2023-02-22T09:25:47;11.30;1.00
13744;DHT22;6943;52.368;9.966;2023-02-22T09:28:13;11.20;1.00
13744;DHT22;6943;52.368;9.966;2023-02-22T09:30:39;11.20;1.00
13744;DHT22;6943;52.368;9.966;2023-02-22T09:33:13;11.20;1.00
13744;DHT22;6943;52.368;9.966;2023-02-22T09:35:40;11.30;1.00
13744;DHT22;6943;52.368;9.966;2023-02-22T09:38:07;11.30;1.00
13744;DHT22;6943;52.368;9.966;2023-02-22T09:40:36;11.20;1.00
13744;DHT22;6943;52.368;9.966;2023-02-22T09:46:20;11.10;99.90
13744;DHT22;6943;52.368;9.966;2023-02-22T09:49:04;11.40;1.00
13744;DHT22;6943;52.368;9.966;2023-02-22T09:54:21;11.90;12.80
13744;DHT22;6943;52.368;9.966;2023-02-22T09:56:50;12.10;1.00
13744;DHT22;6943;52.368;9.966;2023-02-22T09:59:29;12.10;1.00
13744;DHT22;6943;52.368;9.966;2023-02-22T10:02:04;11.90;1.00
13744;DHT22;6943;52.368;9.966;2023-02-22T10:04:43;11.70;1.00
13744;DHT22;6943;52.368;9.966;2023-02-22T10:07:21;11.60;99.90
13744;DHT22;6943;52.368;9.966;2023-02-22T10:09:50;11.60;99.90
13744;DHT22;6943;52.368;9.966;2023-02-22T10:12:28;11.80;99.90
13744;DHT22;6943;52.368;9.966;2023-02-22T10:18:16;12.10;1.00
13744;DHT22;6943;52.368;9.966;2023-02-22T10:20:56;12.20;1.00
13744;DHT22;6943;52.368;9.966;2023-02-22T10:23:32;12.20;1.00
13744;DHT22;6943;52.368;9.966;2023-02-22T10:28:40;12.20;99.90
13744;DHT22;6943;52.368;9.966;2023-02-22T10:31:08;12.30;1.00
13744;DHT22;6943;52.368;9.966;2023-02-22T10:33:45;12.40;99.90
13744;DHT22;6943;52.368;9.966;2023-02-22T10:36:19;12.60;99.90
13744;DHT22;6943;52.368;9.966;2023-02-22T10:38:53;12.90;1.00
13744;DHT22;6943;52.368;9.966;2023-02-22T10:41:30;12.90;1.00
13744;DHT22;6943;52.368;9.966;2023-02-22T10:43:57;12.90;1.00
13744;DHT22;6943;52.368;9.966;2023-02-22T10:46:26;12.90;1.00
13744;DHT22;6943;52.368;9.966;2023-02-22T10:48:55;12.90;1.00
13744;DHT22;6943;52.368;9.966;2023-02-22T10:51:24;13.00;1.00
13744;DHT22;6943;52.368;9.966;2023-02-22T10:54:23;13.20;1.00
13744;DHT22;6943;52.368;9.966;2023-02-22T10:56:53;13.50;1.00
13744;DHT22;6943;52.368;9.966;2023-02-22T10:59:34;13.70;1.00
13744;DHT22;6943;52.368;9.966;2023-02-22T11:02:14;13.50;99.90
13744;DHT22;6943;52.368;9.966;2023-02-22T11:04:50;13.30;1.00
13744;DHT22;6943;52.368;9.966;2023-02-22T11:10:02;13.50;1.00
13744;DHT22;6943;52.368;9.966;2023-02-22T11:12:35;13.60;1.00
13744;DHT22;6943;52.368;9.966;2023-02-22T11:17:42;13.20;1.00
13744;DHT22;6943;52.368;9.966;2023-02-22T11:22:43;13.40;1.00
13744;DHT22;6943;52.368;9.966;2023-02-22T11:25:18;13.50;1.00
13744;DHT22;6943;52.368;9.966;2023-02-22T11:27:44;13.40;1.00
13744;DHT22;6943;52.368;9.966;2023-02-22T11:30:18;13.60;1.00
13744;DHT22;6943;52.368;9.966;2023-02-22T11:32:49;13.90;1.00
13744;DHT22;6943;52.368;9.966;2023-02-22T11:35:35;13.90;99.90
13744;DHT22;6943;52.368;9.966;2023-02-22T11:38:30;14.10;99.90
13744;DHT22;6943;52.368;9.966;2023-02-22T11:41:06;13.90;99.90
13744;DHT22;6943;52.368;9.966;2023-02-22T11:43:35;13.80;1.00
13744;DHT22;6943;52.368;9.966;2023-02-22T11:48:28;13.60;1.00
13744;DHT22;6943;52.368;9.966;2023-02-22T11:53:56;13.70;1.00
13744;DHT22;6943;52.368;9.966;2023-02-22T11:56:38;13.70;1.00
13744;DHT22;6943;52.368;9.966;2023-02-22T12:10:16;13.50;1.00
13744;DHT22;6943;52.368;9.966;2023-02-22T12:15:22;13.60;1.00
13744;DHT22;6943;52.368;9.966;2023-02-22T12:18:08;13.40;1.00
13744;DHT22;6943;52.368;9.966;2023-02-22T12:20:39;13.30;1.00
13744;DHT22;6943;52.368;9.966;2023-02-22T12:23:33;13.30;1.00
13744;DHT22;6943;52.368;9.966;2023-02-22T12:26:09;13.30;1.00
13744;DHT22;6943;52.368;9.966;2023-02-22T12:28:39;13.20;1.00
13744;DHT22;6943;52.368;9.966;2023-02-22T12:31:17;13.20;1.00
13744;DHT22;6943;52.368;9.966;2023-02-22T12:33:50;13.20;1.00
13744;DHT22;6943;52.368;9.966;2023-02-22T12:36:20;13.20;1.00
13744;DHT22;6943;52.368;9.966;2023-02-22T12:38:56;13.30;1.00
13744;DHT22;6943;52.368;9.966;2023-02-22T12:41:29;13.30;1.00
13744;DHT22;6943;52.368;9.966;2023-02-22T12:44:01;13.30;1.00
13744;DHT22;6943;52.368;9.966;2023-02-22T12:46:33;13.20;1.00
13744;DHT22;6943;52.368;9.966;2023-02-22T12:49:03;13.20;1.00
13744;DHT22;6943;52.368;9.966;2023-02-22T12:51:43;13.30;1.00
13744;DHT22;6943;52.368;9.966;2023-02-22T12:54:32;13.30;1.00
13744;DHT22;6943;52.368;9.966;2023-02-22T12:57:15;13.30;1.00
13744;DHT22;6943;52.368;9.966;2023-02-22T12:59:51;13.50;1.00
13744;DHT22;6943;52.368;9.966;2023-02-22T13:02:31;13.50;1.00
13744;DHT22;6943;52.368;9.966;2023-02-22T13:04:57;13.60;1.00
13744;DHT22;6943;52.368;9.966;2023-02-22T13:07:29;13.70;1.00
13744;DHT22;6943;52.368;9.966;2023-02-22T13:13:43;13.50;1.00
13744;DHT22;6943;52.368;9.966;2023-02-22T13:16:25;13.40;1.00
13744;DHT22;6943;52.368;9.966;2023-02-22T13:19:07;13.60;1.00
13744;DHT22;6943;52.368;9.966;2023-02-22T13:21:51;13.60;1.00
13744;DHT22;6943;52.368;9.966;2023-02-22T13:26:59;13.50;1.00
13744;DHT22;6943;52.368;9.966;2023-02-22T13:29:37;13.50;1.00
13744;DHT22;6943;52.368;9.966;2023-02-22T13:37:39;13.70;1.00
13744;DHT22;6943;52.368;9.966;2023-02-22T13:40:32;13.70;1.00
13744;DHT22;6943;52.368;9.966;2023-02-22T13:46:30;13.80;1.00
13744;DHT22;6943;52.368;9.966;2023-02-22T13:48:59;13.80;1.00
13744;DHT22;6943;52.368;9.966;2023-02-22T13:51:49;13.80;1.00
13744;DHT22;6943;52.368;9.966;2023-02-22T13:57:01;14.00;1.00
13744;DHT22;6943;52.368;9.966;2023-02-22T13:59:35;14.00;1.00
13744;DHT22;6943;52.368;9.966;2023-02-22T14:02:02;14.00;1.00
13744;DHT22;6943;52.368;9.966;2023-02-22T14:07:01;13.90;1.00
13744;DHT22;6943;52.368;9.966;2023-02-22T14:12:45;13.90;1.00
13744;DHT22;6943;52.368;9.966;2023-02-22T14:17:44;13.90;1.00
13744;DHT22;6943;52.368;9.966;2023-02-22T14:22:41;14.00;1.00
13744;DHT22;6943;52.368;9.966;2023-02-22T14:27:57;14.10;1.00
13744;DHT22;6943;52.368;9.966;2023-02-22T14:30:26;14.10;1.00
13744;DHT22;6943;52.368;9.966;2023-02-22T14:32:52;14.10;1.00
13744;DHT22;6943;52.368;9.966;2023-02-22T14:35:19;14.00;1.00
13744;DHT22;6943;52.368;9.966;2023-02-22T14:37:55;14.00;1.00
13744;DHT22;6943;52.368;9.966;2023-02-22T14:40:41;14.10;1.00
13744;DHT22;6943;52.368;9.966;2023-02-22T14:43:21;14.00;1.00
13744;DHT22;6943;52.368;9.966;2023-02-22T14:45:54;14.00;1.00
13744;DHT22;6943;52.368;9.966;2023-02-22T14:48:35;14.00;99.90
13744;DHT22;6943;52.368;9.966;2023-02-22T14:51:23;13.90;99.90
13744;DHT22;6943;52.368;9.966;2023-02-22T14:53:53;13.90;99.90
13744;DHT22;6943;52.368;9.966;2023-02-22T14:56:22;13.90;86.20
13744;DHT22;6943;52.368;9.966;2023-02-22T14:59:10;13.80;99.90
13744;DHT22;6943;52.368;9.966;2023-02-22T15:01:37;13.70;99.90
13744;DHT22;6943;52.368;9.966;2023-02-22T15:04:19;13.70;99.90
13744;DHT22;6943;52.368;9.966;2023-02-22T15:06:45;13.70;99.90
13744;DHT22;6943;52.368;9.966;2023-02-22T15:09:23;13.60;99.90
13744;DHT22;6943;52.368;9.966;2023-02-22T15:14:27;13.60;1.00
13744;DHT22;6943;52.368;9.966;2023-02-22T15:16:58;13.50;1.00
13744;DHT22;6943;52.368;9.966;2023-02-22T15:19:27;13.50;1.00
13744;DHT22;6943;52.368;9.966;2023-02-22T15:21:55;13.50;1.00
13744;DHT22;6943;52.368;9.966;2023-02-22T15:24:24;13.40;9.00
13744;DHT22;6943;52.368;9.966;2023-02-22T15:26:51;13.40;99.90
13744;DHT22;6943;52.368;9.966;2023-02-22T15:29:24;13.40;99.90
13744;DHT22;6943;52.368;9.966;2023-02-22T15:31:51;13.30;99.90
13744;DHT22;6943;52.368;9.966;2023-02-22T15:34:29;13.30;99.90
13744;DHT22;6943;52.368;9.966;2023-02-22T15:36:56;13.30;99.90
13744;DHT22;6943;52.368;9.966;2023-02-22T15:39:24;13.30;99.90
13744;DHT22;6943;52.368;9.966;2023-02-22T15:42:07;13.20;99.90
13744;DHT22;6943;52.368;9.966;2023-02-22T15:44:41;13.20;93.60
13744;DHT22;6943;52.368;9.966;2023-02-22T15:47:17;13.20;30.00
13744;DHT22;6943;52.368;9.966;2023-02-22T15:49:43;13.10;6.90
13744;DHT22;6943;52.368;9.966;2023-02-22T15:52:19;13.10;99.90
13744;DHT22;6943;52.368;9.966;2023-02-22T15:54:48;13.10;99.90
13744;DHT22;6943;52.368;9.966;2023-02-22T15:57:19;13.00;1.00
13744;DHT22;6943;52.368;9.966;2023-02-22T15:59:51;12.90;1.00
13744;DHT22;6943;52.368;9.966;2023-02-22T16:02:33;12.70;53.30
13744;DHT22;6943;52.368;9.966;2023-02-22T16:05:08;12.70;1.00
13744;DHT22;6943;52.368;9.966;2023-02-22T16:07:43;12.60;1.00
13744;DHT22;6943;52.368;9.966;2023-02-22T16:10:30;12.50;1.00
13744;DHT22;6943;52.368;9.966;2023-02-22T16:13:17;12.40;99.90
13744;DHT22;6943;52.368;9.966;2023-02-22T16:15:53;12.40;1.00
13744;DHT22;6943;52.368;9.966;2023-02-22T16:18:26;12.30;1.00
13744;DHT22;6943;52.368;9.966;2023-02-22T16:21:10;12.20;1.00
13744;DHT22;6943;52.368;9.966;2023-02-22T16:23:54;12.10;1.00
13744;DHT22;6943;52.368;9.966;2023-02-22T16:26:21;12.00;1.00
13744;DHT22;6943;52.368;9.966;2023-02-22T16:29:23;12.00;1.00
13744;DHT22;6943;52.368;9.966;2023-02-22T16:31:39;11.90;99.90
13744;DHT22;6943;52.368;9.966;2023-02-22T16:34:07;11.80;1.00
13744;DHT22;6943;52.368;9.966;2023-02-22T16:36:45;11.70;1.00
13744;DHT22;6943;52.368;9.966;2023-02-22T16:39:26;11.60;1.00
13744;DHT22;6943;52.368;9.966;2023-02-22T16:41:57;11.50;1.00
13744;DHT22;6943;52.368;9.966;2023-02-22T16:44:23;11.50;46.10
13744;DHT22;6943;52.368;9.966;2023-02-22T16:46:51;11.40;99.90
13744;DHT22;6943;52.368;9.966;2023-02-22T16:49:17;11.40;99.90
13744;DHT22;6943;52.368;9.966;2023-02-22T16:54:12;11.30;1.00
13744;DHT22;6943;52.368;9.966;2023-02-22T16:56:38;11.30;1.00
13744;DHT22;6943;52.368;9.966;2023-02-22T16:59:09;11.20;1.00
13744;DHT22;6943;52.368;9.966;2023-02-22T17:01:35;11.20;1.00
13744;DHT22;6943;52.368;9.966;2023-02-22T17:04:01;11.20;1.00
13744;DHT22;6943;52.368;9.966;2023-02-22T17:06:26;11.10;1.00
13744;DHT22;6943;52.368;9.966;2023-02-22T17:08:53;11.10;1.00
13744;DHT22;6943;52.368;9.966;2023-02-22T17:11:19;11.10;1.00
13744;DHT22;6943;52.368;9.966;2023-02-22T17:13:45;11.00;33.60
13744;DHT22;6943;52.368;9.966;2023-02-22T17:16:14;11.00;99.90
13744;DHT22;6943;52.368;9.966;2023-02-22T17:18:40;11.00;99.90
13744;DHT22;6943;52.368;9.966;2023-02-22T17:21:06;11.00;99.90
13744;DHT22;6943;52.368;9.966;2023-02-22T17:23:31;10.90;99.90
13744;DHT22;6943;52.368;9.966;2023-02-22T17:25:59;10.90;99.90
13744;DHT22;6943;52.368;9.966;2023-02-22T17:28:25;10.90;99.90
13744;DHT22;6943;52.368;9.966;2023-02-22T17:30:53;10.90;99.90
13744;DHT22;6943;52.368;9.966;2023-02-22T17:33:21;10.90;99.90
13744;DHT22;6943;52.368;9.966;2023-02-22T17:35:51;10.80;99.90
13744;DHT22;6943;52.368;9.966;2023-02-22T17:38:16;10.90;21.70
13744;DHT22;6943;52.368;9.966;2023-02-22T17:40:43;10.80;99.90
13744;DHT22;6943;52.368;9.966;2023-02-22T17:43:10;10.80;90.90
13744;DHT22;6943;52.368;9.966;2023-02-22T17:45:40;10.70;99.90
13744;DHT22;6943;52.368;9.966;2023-02-22T17:48:06;10.70;99.90